sensor_id;sensor_type;location;lat;lon;timestamp;temperature;humidity
12233;DHT22;6179;51.748;8.728;2024-01-30T00:05:30;5.80;98.30
12233;DHT22;6179;51.748;8.728;2024-01-30T00:11:31;5.80;98.30
12233;DHT22;6179;51.748;8.728;2024-01-30T00:17:32;6.00;98.30
12233;DHT22;6179;51.748;8.728;2024-01-30T00:23:32;6.20;98.30
12233;DHT22;6179;51.748;8.728;2024-01-30T00:29:33;6.30;98.30
12233;DHT22;6179;51.748;8.728;2024-01-30T00:35:34;5.90;98.30
12233;DHT22;6179;51.748;8.728;2024-01-30T00:41:35;5.90;98.30
12233;DHT22;6179;51.748;8.728;2024-01-30T00:47:36;5.60;98.30
12233;DHT22;6179;51.748;8.728;2024-01-30T00:53:37;5.50;98.30
12233;DHT22;6179;51.748;8.728;2024-01-30T00:59:37;5.70;98.30
12233;DHT22;6179;51.748;8.728;2024-01-30T01:05:38;5.70;98.30
12233;DHT22;6179;51.748;8.728;2024-01-30T01:11:39;5.60;98.30
12233;DHT22;6179;51.748;8.728;2024-01-30T01:17:40;5.70;98.30
12233;DHT22;6179;51.748;8.728;2024-01-30T01:23:41;5.90;98.30
12233;DHT22;6179;51.748;8.728;2024-01-30T01:29:42;5.70;98.30
12233;DHT22;6179;51.748;8.728;2024-01-30T01:35:43;5.60;98.30
12233;DHT22;6179;51.748;8.728;2024-01-30T01:41:44;5.70;98.30
12233;DHT22;6179;51.748;8.728;2024-01-30T01:47:51;5.80;98.30
12233;DHT22;6179;51.748;8.728;2024-01-30T01:53:53;5.60;98.30
12233;DHT22;6179;51.748;8.728;2024-01-30T01:59:56;5.30;98.30
12233;DHT22;6179;51.748;8.728;2024-01-30T02:05:57;5.20;98.30
12233;DHT22;6179;51.748;8.728;2024-01-30T02:11:57;5.20;98.30
12233;DHT22;6179;51.748;8.728;2024-01-30T02:17:58;5.00;98.30
12233;DHT22;6179;51.748;8.728;2024-01-30T02:23:59;5.00;98.30
12233;DHT22;6179;51.748;8.728;2024-01-30T02:30:01;5.10;98.30
12233;DHT22;6179;51.748;8.728;2024-01-30T02:36:02;4.90;98.30
12233;DHT22;6179;51.748;8.728;2024-01-30T02:42:04;4.80;98.30
12233;DHT22;6179;51.748;8.728;2024-01-30T02:48:06;4.80;98.30
12233;DHT22;6179;51.748;8.728;2024-01-30T02:54:07;4.70;98.30
12233;DHT22;6179;51.748;8.728;2024-01-30T03:00:09;4.60;98.30
12233;DHT22;6179;51.748;8.728;2024-01-30T03:06:12;4.60;98.30
12233;DHT22;6179;51.748;8.728;2024-01-30T03:12:12;4.50;98.30
12233;DHT22;6179;51.748;8.728;2024-01-30T03:18:13;4.50;98.30
12233;DHT22;6179;51.748;8.728;2024-01-30T03:24:14;4.90;98.30
12233;DHT22;6179;51.748;8.728;2024-01-30T03:30:15;4.80;98.30
12233;DHT22;6179;51.748;8.728;2024-01-30T03:36:16;4.60;98.30
12233;DHT22;6179;51.748;8.728;2024-01-30T03:42:17;4.50;98.30
12233;DHT22;6179;51.748;8.728;2024-01-30T03:48:18;4.60;98.30
12233;DHT22;6179;51.748;8.728;2024-01-30T03:54:20;4.80;98.30
12233;DHT22;6179;51.748;8.728;2024-01-30T04:00:21;4.50;98.30
12233;DHT22;6179;51.748;8.728;2024-01-30T04:06:22;4.40;98.30
12233;DHT22;6179;51.748;8.728;2024-01-30T04:12:23;4.40;98.30
12233;DHT22;6179;51.748;8.728;2024-01-30T04:18:23;4.40;98.30
12233;DHT22;6179;51.748;8.728;2024-01-30T04:24:24;4.40;98.30
12233;DHT22;6179;51.748;8.728;2024-01-30T04:30:25;4.50;98.30
12233;DHT22;6179;51.748;8.728;2024-01-30T04:36:25;4.60;98.30
12233;DHT22;6179;51.748;8.728;2024-01-30T04:42:26;4.60;98.30
12233;DHT22;6179;51.748;8.728;2024-01-30T04:48:27;4.80;98.30
12233;DHT22;6179;51.748;8.728;2024-01-30T04:54:28;4.60;98.30
12233;DHT22;6179;51.748;8.728;2024-01-30T05:00:28;4.90;98.30
12233;DHT22;6179;51.748;8.728;2024-01-30T05:06:29;4.60;98.30
12233;DHT22;6179;51.748;8.728;2024-01-30T05:12:30;4.60;98.30
12233;DHT22;6179;51.748;8.728;2024-01-30T05:18:31;4.70;98.30
12233;DHT22;6179;51.748;8.728;2024-01-30T05:24:31;4.50;98.30
12233;DHT22;6179;51.748;8.728;2024-01-30T05:30:32;4.30;98.30
12233;DHT22;6179;51.748;8.728;2024-01-30T05:36:33;4.30;98.30
12233;DHT22;6179;51.748;8.728;2024-01-30T05:42:34;4.50;98.30
12233;DHT22;6179;51.748;8.728;2024-01-30T05:48:34;4.40;98.30
12233;DHT22;6179;51.748;8.728;2024-01-30T05:54:36;4.30;98.30
12233;DHT22;6179;51.748;8.728;2024-01-30T06:00:37;4.20;98.30
12233;DHT22;6179;51.748;8.728;2024-01-30T06:06:37;4.10;98.30
12233;DHT22;6179;51.748;8.728;2024-01-30T06:12:38;4.20;98.30
12233;DHT22;6179;51.748;8.728;2024-01-30T06:18:39;4.30;98.30
12233;DHT22;6179;51.748;8.728;2024-01-30T06:24:40;4.20;98.30
12233;DHT22;6179;51.748;8.728;2024-01-30T06:30:41;4.40;98.30
12233;DHT22;6179;51.748;8.728;2024-01-30T06:36:42;4.40;98.30
12233;DHT22;6179;51.748;8.728;2024-01-30T06:42:43;4.30;98.30
12233;DHT22;6179;51.748;8.728;2024-01-30T06:48:43;4.40;98.30
12233;DHT22;6179;51.748;8.728;2024-01-30T06:54:45;4.30;98.30
12233;DHT22;6179;51.748;8.728;2024-01-30T07:00:45;4.40;98.30
12233;DHT22;6179;51.748;8.728;2024-01-30T07:06:47;4.40;98.30
12233;DHT22;6179;51.748;8.728;2024-01-30T07:12:48;4.60;98.30
12233;DHT22;6179;51.748;8.728;2024-01-30T07:18:49;4.50;98.30
12233;DHT22;6179;51.748;8.728;2024-01-30T07:24:50;4.40;98.30
12233;DHT22;6179;51.748;8.728;2024-01-30T07:30:52;4.50;98.30
12233;DHT22;6179;51.748;8.728;2024-01-30T07:36:53;4.70;98.30
12233;DHT22;6179;51.748;8.728;2024-01-30T07:42:54;5.00;98.30
12233;DHT22;6179;51.748;8.728;2024-01-30T07:48:55;5.00;98.30
12233;DHT22;6179;51.748;8.728;2024-01-30T07:54:57;4.80;98.30
12233;DHT22;6179;51.748;8.728;2024-01-30T08:00:58;4.80;98.30
12233;DHT22;6179;51.748;8.728;2024-01-30T08:06:58;4.80;98.30
12233;DHT22;6179;51.748;8.728;2024-01-30T08:12:59;4.90;98.30
12233;DHT22;6179;51.748;8.728;2024-01-30T08:19:00;4.90;98.30
12233;DHT22;6179;51.748;8.728;2024-01-30T08:25:01;5.10;98.30
12233;DHT22;6179;51.748;8.728;2024-01-30T08:31:02;5.40;98.30
12233;DHT22;6179;51.748;8.728;2024-01-30T08:37:03;5.60;98.30
12233;DHT22;6179;51.748;8.728;2024-01-30T08:43:04;5.80;98.30
12233;DHT22;6179;51.748;8.728;2024-01-30T08:49:05;6.30;98.30
12233;DHT22;6179;51.748;8.728;2024-01-30T08:55:06;6.90;98.30
12233;DHT22;6179;51.748;8.728;2024-01-30T09:01:07;7.10;98.30
12233;DHT22;6179;51.748;8.728;2024-01-30T09:07:09;7.20;98.30
12233;DHT22;6179;51.748;8.728;2024-01-30T09:13:10;7.30;98.30
12233;DHT22;6179;51.748;8.728;2024-01-30T09:19:11;7.50;98.30
12233;DHT22;6179;51.748;8.728;2024-01-30T09:25:12;7.90;98.30
12233;DHT22;6179;51.748;8.728;2024-01-30T09:31:12;8.30;98.30
12233;DHT22;6179;51.748;8.728;2024-01-30T09:37:13;8.30;98.30
12233;DHT22;6179;51.748;8.728;2024-01-30T09:43:17;8.50;98.30
12233;DHT22;6179;51.748;8.728;2024-01-30T09:49:23;8.80;98.30
12233;DHT22;6179;51.748;8.728;2024-01-30T09:55:25;9.20;98.30
12233;DHT22;6179;51.748;8.728;2024-01-30T10:01:26;9.60;98.30
12233;DHT22;6179;51.748;8.728;2024-01-30T10:07:27;9.90;98.30
12233;DHT22;6179;51.748;8.728;2024-01-30T10:13:28;10.40;98.30
12233;DHT22;6179;51.748;8.728;2024-01-30T10:19:29;10.80;98.30
12233;DHT22;6179;51.748;8.728;2024-01-30T10:25:33;11.10;98.30
12233;DHT22;6179;51.748;8.728;2024-01-30T10:31:34;11.30;98.30
12233;DHT22;6179;51.748;8.728;2024-01-30T10:37:35;11.50;98.30
12233;DHT22;6179;51.748;8.728;2024-01-30T10:43:36;11.60;98.20
12233;DHT22;6179;51.748;8.728;2024-01-30T10:49:41;11.80;97.30
12233;DHT22;6179;51.748;8.728;2024-01-30T10:55:43;12.20;96.00
12233;DHT22;6179;51.748;8.728;2024-01-30T11:01:47;12.30;95.20
12233;DHT22;6179;51.748;8.728;2024-01-30T11:07:47;12.30;94.50
12233;DHT22;6179;51.748;8.728;2024-01-30T11:13:50;12.60;93.60
12233;DHT22;6179;51.748;8.728;2024-01-30T11:19:52;12.80;91.70
12233;DHT22;6179;51.748;8.728;2024-01-30T11:25:53;13.00;92.10
12233;DHT22;6179;51.748;8.728;2024-01-30T11:31:55;13.30;91.40
12233;DHT22;6179;51.748;8.728;2024-01-30T11:37:58;13.60;90.80
12233;DHT22;6179;51.748;8.728;2024-01-30T11:44:03;13.90;90.30
12233;DHT22;6179;51.748;8.728;2024-01-30T11:50:05;13.90;89.20
12233;DHT22;6179;51.748;8.728;2024-01-30T11:56:06;13.80;89.40
12233;DHT22;6179;51.748;8.728;2024-01-30T12:02:08;14.10;87.40
12233;DHT22;6179;51.748;8.728;2024-01-30T12:08:15;14.00;87.80
12233;DHT22;6179;51.748;8.728;2024-01-30T12:14:17;14.00;87.40
12233;DHT22;6179;51.748;8.728;2024-01-30T12:20:20;13.80;89.60
12233;DHT22;6179;51.748;8.728;2024-01-30T12:26:21;14.00;88.90
12233;DHT22;6179;51.748;8.728;2024-01-30T12:32:23;14.20;88.30
12233;DHT22;6179;51.748;8.728;2024-01-30T12:38:24;14.30;87.30
12233;DHT22;6179;51.748;8.728;2024-01-30T12:44:25;14.00;89.90
12233;DHT22;6179;51.748;8.728;2024-01-30T12:50:26;14.00;88.00
12233;DHT22;6179;51.748;8.728;2024-01-30T12:56:27;14.10;88.40
12233;DHT22;6179;51.748;8.728;2024-01-30T13:02:28;13.70;89.80
12233;DHT22;6179;51.748;8.728;2024-01-30T13:08:36;13.50;90.30
12233;DHT22;6179;51.748;8.728;2024-01-30T13:14:37;13.70;89.70
12233;DHT22;6179;51.748;8.728;2024-01-30T13:20:38;13.50;89.90
12233;DHT22;6179;51.748;8.728;2024-01-30T13:26:39;13.40;90.80
12233;DHT22;6179;51.748;8.728;2024-01-30T13:32:40;13.50;90.00
12233;DHT22;6179;51.748;8.728;2024-01-30T13:38:41;13.50;90.50
12233;DHT22;6179;51.748;8.728;2024-01-30T13:44:42;13.50;90.80
12233;DHT22;6179;51.748;8.728;2024-01-30T13:50:46;13.90;89.50
12233;DHT22;6179;51.748;8.728;2024-01-30T13:56:47;13.60;90.60
12233;DHT22;6179;51.748;8.728;2024-01-30T14:02:48;13.30;91.60
12233;DHT22;6179;51.748;8.728;2024-01-30T14:08:49;13.30;91.80
12233;DHT22;6179;51.748;8.728;2024-01-30T14:14:49;13.20;92.10
12233;DHT22;6179;51.748;8.728;2024-01-30T14:20:51;13.20;92.40
12233;DHT22;6179;51.748;8.728;2024-01-30T14:26:52;13.00;93.40
12233;DHT22;6179;51.748;8.728;2024-01-30T14:32:53;13.30;92.60
12233;DHT22;6179;51.748;8.728;2024-01-30T14:38:54;13.10;93.80
12233;DHT22;6179;51.748;8.728;2024-01-30T14:44:55;13.20;93.50
12233;DHT22;6179;51.748;8.728;2024-01-30T14:50:56;13.00;94.80
12233;DHT22;6179;51.748;8.728;2024-01-30T14:56:57;13.20;94.60
12233;DHT22;6179;51.748;8.728;2024-01-30T15:02:59;13.10;94.90
12233;DHT22;6179;51.748;8.728;2024-01-30T15:09:00;12.90;95.90
12233;DHT22;6179;51.748;8.728;2024-01-30T15:15:01;12.40;97.90
12233;DHT22;6179;51.748;8.728;2024-01-30T15:21:03;12.30;98.30
12233;DHT22;6179;51.748;8.728;2024-01-30T15:27:04;12.10;98.30
12233;DHT22;6179;51.748;8.728;2024-01-30T15:33:05;12.20;98.30
12233;DHT22;6179;51.748;8.728;2024-01-30T15:39:06;12.00;98.30
12233;DHT22;6179;51.748;8.728;2024-01-30T15:45:07;12.00;98.30
12233;DHT22;6179;51.748;8.728;2024-01-30T15:51:07;12.00;98.30
12233;DHT22;6179;51.748;8.728;2024-01-30T15:57:08;12.10;98.30
12233;DHT22;6179;51.748;8.728;2024-01-30T16:03:09;12.10;98.30
12233;DHT22;6179;51.748;8.728;2024-01-30T16:09:10;12.00;98.30
12233;DHT22;6179;51.748;8.728;2024-01-30T16:15:12;12.20;98.30
12233;DHT22;6179;51.748;8.728;2024-01-30T16:21:15;12.20;98.30
12233;DHT22;6179;51.748;8.728;2024-01-30T16:27:16;12.10;98.30
12233;DHT22;6179;51.748;8.728;2024-01-30T16:33:17;12.00;98.30
12233;DHT22;6179;51.748;8.728;2024-01-30T16:39:18;11.80;98.30
12233;DHT22;6179;51.748;8.728;2024-01-30T16:45:19;11.80;98.30
12233;DHT22;6179;51.748;8.728;2024-01-30T16:51:20;11.60;98.30
12233;DHT22;6179;51.748;8.728;2024-01-30T16:57:21;11.70;98.30
12233;DHT22;6179;51.748;8.728;2024-01-30T17:03:21;11.70;98.30
12233;DHT22;6179;51.748;8.728;2024-01-30T17:09:22;11.20;98.30
12233;DHT22;6179;51.748;8.728;2024-01-30T17:15:23;10.80;98.30
12233;DHT22;6179;51.748;8.728;2024-01-30T17:21:25;10.80;98.30
12233;DHT22;6179;51.748;8.728;2024-01-30T17:27:25;11.00;98.30
12233;DHT22;6179;51.748;8.728;2024-01-30T17:33:26;11.00;98.30
12233;DHT22;6179;51.748;8.728;2024-01-30T17:39:27;11.00;98.30
12233;DHT22;6179;51.748;8.728;2024-01-30T17:45:27;11.10;98.30
12233;DHT22;6179;51.748;8.728;2024-01-30T17:51:28;11.00;98.30
12233;DHT22;6179;51.748;8.728;2024-01-30T17:57:29;10.80;98.30
12233;DHT22;6179;51.748;8.728;2024-01-30T18:03:30;10.70;98.30
12233;DHT22;6179;51.748;8.728;2024-01-30T18:09:31;10.70;98.30
12233;DHT22;6179;51.748;8.728;2024-01-30T18:15:31;10.70;96.50
12233;DHT22;6179;51.748;8.728;2024-01-30T18:21:32;10.40;94.70
12233;DHT22;6179;51.748;8.728;2024-01-30T18:27:33;10.10;94.40
12233;DHT22;6179;51.748;8.728;2024-01-30T18:33:34;10.10;94.10
12233;DHT22;6179;51.748;8.728;2024-01-30T18:39:34;10.10;92.90
12233;DHT22;6179;51.748;8.728;2024-01-30T18:45:35;9.80;92.30
12233;DHT22;6179;51.748;8.728;2024-01-30T18:51:36;9.90;92.00
12233;DHT22;6179;51.748;8.728;2024-01-30T18:57:37;9.80;91.50
12233;DHT22;6179;51.748;8.728;2024-01-30T19:03:38;9.80;90.50
12233;DHT22;6179;51.748;8.728;2024-01-30T19:09:39;9.80;90.60
12233;DHT22;6179;51.748;8.728;2024-01-30T19:15:40;9.80;90.30
12233;DHT22;6179;51.748;8.728;2024-01-30T19:21:42;9.60;90.40
12233;DHT22;6179;51.748;8.728;2024-01-30T19:27:43;9.30;91.30
12233;DHT22;6179;51.748;8.728;2024-01-30T19:33:44;9.10;92.20
12233;DHT22;6179;51.748;8.728;2024-01-30T19:39:45;9.20;92.30
12233;DHT22;6179;51.748;8.728;2024-01-30T19:45:47;9.10;92.80
12233;DHT22;6179;51.748;8.728;2024-01-30T19:51:48;9.50;91.80
12233;DHT22;6179;51.748;8.728;2024-01-30T19:57:49;9.50;92.40
12233;DHT22;6179;51.748;8.728;2024-01-30T20:03:50;9.60;92.60
12233;DHT22;6179;51.748;8.728;2024-01-30T20:09:50;9.40;94.10
12233;DHT22;6179;51.748;8.728;2024-01-30T20:15:52;9.40;94.80
12233;DHT22;6179;51.748;8.728;2024-01-30T20:21:53;9.30;96.30
12233;DHT22;6179;51.748;8.728;2024-01-30T20:27:54;9.20;97.50
12233;DHT22;6179;51.748;8.728;2024-01-30T20:33:55;9.10;98.30
12233;DHT22;6179;51.748;8.728;2024-01-30T20:39:55;9.20;97.90
12233;DHT22;6179;51.748;8.728;2024-01-30T20:45:56;9.00;98.30
12233;DHT22;6179;51.748;8.728;2024-01-30T20:51:58;8.90;98.30
12233;DHT22;6179;51.748;8.728;2024-01-30T20:57:59;8.90;98.30
12233;DHT22;6179;51.748;8.728;2024-01-30T21:04:00;8.80;98.30
12233;DHT22;6179;51.748;8.728;2024-01-30T21:10:01;8.70;98.30
12233;DHT22;6179;51.748;8.728;2024-01-30T21:16:02;8.70;98.30
12233;DHT22;6179;51.748;8.728;2024-01-30T21:22:04;8.80;98.30
12233;DHT22;6179;51.748;8.728;2024-01-30T21:28:05;8.70;98.30
12233;DHT22;6179;51.748;8.728;2024-01-30T21:34:06;8.70;98.30
12233;DHT22;6179;51.748;8.728;2024-01-30T21:40:07;8.40;98.30
12233;DHT22;6179;51.748;8.728;2024-01-30T21:46:09;8.50;98.30
12233;DHT22;6179;51.748;8.728;2024-01-30T21:52:10;8.50;98.30
12233;DHT22;6179;51.748;8.728;2024-01-30T21:58:11;8.30;98.30
12233;DHT22;6179;51.748;8.728;2024-01-30T22:04:12;8.30;98.30
12233;DHT22;6179;51.748;8.728;2024-01-30T22:10:13;8.50;98.30
12233;DHT22;6179;51.748;8.728;2024-01-30T22:16:14;8.40;98.30
12233;DHT22;6179;51.748;8.728;2024-01-30T22:22:15;8.40;98.30
12233;DHT22;6179;51.748;8.728;2024-01-30T22:28:16;8.30;98.30
12233;DHT22;6179;51.748;8.728;2024-01-30T22:34:16;8.20;98.30
12233;DHT22;6179;51.748;8.728;2024-01-30T22:40:17;8.10;98.30
12233;DHT22;6179;51.748;8.728;2024-01-30T22:46:18;8.20;98.30
12233;DHT22;6179;51.748;8.728;2024-01-30T22:52:19;8.00;98.30
12233;DHT22;6179;51.748;8.728;2024-01-30T22:58:20;8.00;98.30
12233;DHT22;6179;51.748;8.728;2024-01-30T23:04:21;8.10;98.30
12233;DHT22;6179;51.748;8.728;2024-01-30T23:10:22;8.20;98.30
12233;DHT22;6179;51.748;8.728;2024-01-30T23:16:22;8.50;98.30
12233;DHT22;6179;51.748;8.728;2024-01-30T23:22:23;8.00;98.30
12233;DHT22;6179;51.748;8.728;2024-01-30T23:28:24;8.10;98.30
12233;DHT22;6179;51.748;8.728;2024-01-30T23:34:25;7.90;98.30
12233;DHT22;6179;51.748;8.728;2024-01-30T23:40:25;8.10;98.30
12233;DHT22;6179;51.748;8.728;2024-01-30T23:46:26;8.00;98.30
12233;DHT22;6179;51.748;8.728;2024-01-30T23:52:27;7.60;98.30
12233;DHT22;6179;51.748;8.728;2024-01-30T23:58:28;7.30;98.30
